sensor_id;sensor_type;location;lat;lon;timestamp;pressure;altitude;pressure_sealevel;temperature;humidity
59337;BME280;45115;52.002;4.686;2023-04-07T00:01:10;101616.06;;;8.29;96.00
59337;BME280;45115;52.002;4.686;2023-04-07T00:03:37;101613.19;;;8.30;95.71
59337;BME280;45115;52.002;4.686;2023-04-07T00:06:08;101609.47;;;8.31;95.75
59337;BME280;45115;52.002;4.686;2023-04-07T00:08:34;101604.59;;;8.24;96.22
59337;BME280;45115;52.002;4.686;2023-04-07T00:11:03;101602.59;;;8.26;96.49
59337;BME280;45115;52.002;4.686;2023-04-07T00:13:31;101609.13;;;8.23;95.99
59337;BME280;45115;52.002;4.686;2023-04-07T00:15:58;101613.84;;;8.21;96.17
59337;BME280;45115;52.002;4.686;2023-04-07T00:18:24;101619.28;;;8.21;95.96
59337;BME280;45115;52.002;4.686;2023-04-07T00:20:51;101628.78;;;8.16;96.71
59337;BME280;45115;52.002;4.686;2023-04-07T00:23:18;101628.03;;;8.14;96.90
59337;BME280;45115;52.002;4.686;2023-04-07T00:25:48;101628.25;;;8.23;96.25
59337;BME280;45115;52.002;4.686;2023-04-07T00:28:18;101629.69;;;8.29;95.54
59337;BME280;45115;52.002;4.686;2023-04-07T00:30:45;101621.91;;;8.23;95.61
59337;BME280;45115;52.002;4.686;2023-04-07T00:33:12;101629.56;;;8.30;95.43
59337;BME280;45115;52.002;4.686;2023-04-07T00:35:38;101632.63;;;8.26;96.09
59337;BME280;45115;52.002;4.686;2023-04-07T00:38:05;101631.44;;;8.30;95.61
59337;BME280;45115;52.002;4.686;2023-04-07T00:40:32;101630.88;;;8.25;95.54
59337;BME280;45115;52.002;4.686;2023-04-07T00:42:58;101635.34;;;8.26;95.76
59337;BME280;45115;52.002;4.686;2023-04-07T00:45:26;101613.19;;;8.18;95.84
59337;BME280;45115;52.002;4.686;2023-04-07T00:47:54;101623.47;;;8.27;95.43
59337;BME280;45115;52.002;4.686;2023-04-07T00:50:25;101630.88;;;8.25;95.41
59337;BME280;45115;52.002;4.686;2023-04-07T00:52:52;101627.59;;;8.20;95.46
59337;BME280;45115;52.002;4.686;2023-04-07T00:55:22;101611.44;;;8.17;94.61
59337;BME280;45115;52.002;4.686;2023-04-07T00:57:48;101625.53;;;8.11;94.85
59337;BME280;45115;52.002;4.686;2023-04-07T01:00:16;101633.28;;;8.17;94.85
59337;BME280;45115;52.002;4.686;2023-04-07T01:02:51;101625.53;;;7.98;95.06
59337;BME280;45115;52.002;4.686;2023-04-07T01:05:25;101627.41;;;7.85;95.59
59337;BME280;45115;52.002;4.686;2023-04-07T01:07:59;101624.66;;;7.85;96.06
59337;BME280;45115;52.002;4.686;2023-04-07T01:10:36;101622.56;;;7.63;96.24
59337;BME280;45115;52.002;4.686;2023-04-07T01:13:21;101619.41;;;7.57;96.51
59337;BME280;45115;52.002;4.686;2023-04-07T01:15:53;101624.31;;;7.52;97.09
59337;BME280;45115;52.002;4.686;2023-04-07T01:18:28;101611.94;;;7.34;97.11
59337;BME280;45115;52.002;4.686;2023-04-07T01:21:07;101626.75;;;7.30;97.32
59337;BME280;45115;52.002;4.686;2023-04-07T01:23:58;101627.31;;;7.35;97.78
59337;BME280;45115;52.002;4.686;2023-04-07T01:26:29;101633.09;;;7.30;97.49
59337;BME280;45115;52.002;4.686;2023-04-07T01:29:27;101642.09;;;7.18;97.74
59337;BME280;45115;52.002;4.686;2023-04-07T01:31:57;101644.50;;;7.23;98.06
59337;BME280;45115;52.002;4.686;2023-04-07T01:34:26;101645.16;;;7.26;98.03
59337;BME280;45115;52.002;4.686;2023-04-07T01:36:58;101642.75;;;7.22;98.10
59337;BME280;45115;52.002;4.686;2023-04-07T01:39:27;101639.94;;;7.23;97.88
59337;BME280;45115;52.002;4.686;2023-04-07T01:41:54;101642.66;;;7.23;98.38
59337;BME280;45115;52.002;4.686;2023-04-07T01:44:27;101640.53;;;7.14;98.14
59337;BME280;45115;52.002;4.686;2023-04-07T01:46:55;101655.59;;;7.20;98.29
59337;BME280;45115;52.002;4.686;2023-04-07T01:49:23;101651.16;;;7.19;98.31
59337;BME280;45115;52.002;4.686;2023-04-07T01:51:51;101657.06;;;7.25;98.78
59337;BME280;45115;52.002;4.686;2023-04-07T01:54:19;101662.16;;;7.30;98.56
59337;BME280;45115;52.002;4.686;2023-04-07T01:56:47;101648.31;;;7.20;98.70
59337;BME280;45115;52.002;4.686;2023-04-07T01:59:14;101653.88;;;7.31;98.64
59337;BME280;45115;52.002;4.686;2023-04-07T02:01:42;101649.75;;;7.38;98.41
59337;BME280;45115;52.002;4.686;2023-04-07T02:04:11;101644.25;;;7.40;98.22
59337;BME280;45115;52.002;4.686;2023-04-07T02:06:43;101641.81;;;7.35;98.19
59337;BME280;45115;52.002;4.686;2023-04-07T02:09:19;101639.75;;;7.39;98.13
59337;BME280;45115;52.002;4.686;2023-04-07T02:11:49;101648.59;;;7.42;98.56
59337;BME280;45115;52.002;4.686;2023-04-07T02:14:22;101649.47;;;7.43;98.26
59337;BME280;45115;52.002;4.686;2023-04-07T02:17:02;101649.47;;;7.43;98.24
59337;BME280;45115;52.002;4.686;2023-04-07T02:19:30;101648.59;;;7.42;98.32
59337;BME280;45115;52.002;4.686;2023-04-07T02:22:02;101653.81;;;7.45;98.58
59337;BME280;45115;52.002;4.686;2023-04-07T02:24:30;101649.69;;;7.52;98.21
59337;BME280;45115;52.002;4.686;2023-04-07T02:26:57;101646.13;;;7.52;98.06
59337;BME280;45115;52.002;4.686;2023-04-07T02:29:25;101644.91;;;7.56;97.90
59337;BME280;45115;52.002;4.686;2023-04-07T02:31:52;101645.00;;;7.54;97.80
59337;BME280;45115;52.002;4.686;2023-04-07T02:34:22;101640.66;;;7.52;97.77
59337;BME280;45115;52.002;4.686;2023-04-07T02:36:49;101639.34;;;7.45;97.46
59337;BME280;45115;52.002;4.686;2023-04-07T02:39:16;101645.88;;;7.42;98.02
59337;BME280;45115;52.002;4.686;2023-04-07T02:41:44;101647.16;;;7.37;98.08
59337;BME280;45115;52.002;4.686;2023-04-07T02:44:11;101650.19;;;7.32;97.92
59337;BME280;45115;52.002;4.686;2023-04-07T02:46:40;101645.72;;;7.31;98.04
59337;BME280;45115;52.002;4.686;2023-04-07T02:49:06;101647.88;;;7.26;98.48
59337;BME280;45115;52.002;4.686;2023-04-07T02:51:34;101649.53;;;7.29;98.60
59337;BME280;45115;52.002;4.686;2023-04-07T02:54:01;101649.84;;;7.24;98.50
59337;BME280;45115;52.002;4.686;2023-04-07T02:56:28;101654.00;;;7.30;98.63
59337;BME280;45115;52.002;4.686;2023-04-07T02:58:55;101644.66;;;7.34;98.53
59337;BME280;45115;52.002;4.686;2023-04-07T03:01:22;101643.47;;;7.38;98.39
59337;BME280;45115;52.002;4.686;2023-04-07T03:03:48;101651.09;;;7.45;98.52
59337;BME280;45115;52.002;4.686;2023-04-07T03:06:24;101651.88;;;7.47;98.54
59337;BME280;45115;52.002;4.686;2023-04-07T03:09:03;101653.41;;;7.51;98.28
59337;BME280;45115;52.002;4.686;2023-04-07T03:11:30;101651.75;;;7.49;98.59
59337;BME280;45115;52.002;4.686;2023-04-07T03:13:58;101659.63;;;7.53;98.54
59337;BME280;45115;52.002;4.686;2023-04-07T03:16:27;101653.06;;;7.56;98.07
59337;BME280;45115;52.002;4.686;2023-04-07T03:19:06;101654.41;;;7.63;98.03
59337;BME280;45115;52.002;4.686;2023-04-07T03:21:38;101647.88;;;7.65;97.75
59337;BME280;45115;52.002;4.686;2023-04-07T03:24:07;101660.75;;;7.63;98.00
59337;BME280;45115;52.002;4.686;2023-04-07T03:26:36;101658.66;;;7.67;97.94
59337;BME280;45115;52.002;4.686;2023-04-07T03:29:07;101657.72;;;7.68;97.75
59337;BME280;45115;52.002;4.686;2023-04-07T03:31:36;101657.50;;;7.71;97.76
59337;BME280;45115;52.002;4.686;2023-04-07T03:34:02;101658.81;;;7.78;97.35
59337;BME280;45115;52.002;4.686;2023-04-07T03:36:29;101653.25;;;7.79;97.50
59337;BME280;45115;52.002;4.686;2023-04-07T03:39:01;101646.59;;;7.83;97.50
59337;BME280;45115;52.002;4.686;2023-04-07T03:41:34;101654.97;;;7.80;97.54
59337;BME280;45115;52.002;4.686;2023-04-07T03:44:01;101646.78;;;7.80;97.85
59337;BME280;45115;52.002;4.686;2023-04-07T03:46:30;101642.09;;;7.82;97.72
59337;BME280;45115;52.002;4.686;2023-04-07T03:48:58;101641.69;;;7.88;97.76
59337;BME280;45115;52.002;4.686;2023-04-07T03:51:25;101650.53;;;7.92;97.42
59337;BME280;45115;52.002;4.686;2023-04-07T03:53:55;101648.44;;;7.96;97.30
59337;BME280;45115;52.002;4.686;2023-04-07T03:56:37;101650.41;;;8.06;97.30
59337;BME280;45115;52.002;4.686;2023-04-07T03:59:05;101656.53;;;7.97;97.08
59337;BME280;45115;52.002;4.686;2023-04-07T04:01:35;101653.56;;;8.00;97.38
59337;BME280;45115;52.002;4.686;2023-04-07T04:04:10;101655.66;;;7.97;97.46
59337;BME280;45115;52.002;4.686;2023-04-07T04:06:37;101657.94;;;8.03;97.58
59337;BME280;45115;52.002;4.686;2023-04-07T04:09:32;101652.91;;;7.97;97.83
59337;BME280;45115;52.002;4.686;2023-04-07T04:12:00;101652.78;;;7.85;98.10
59337;BME280;45115;52.002;4.686;2023-04-07T04:14:29;101669.16;;;7.98;97.71
59337;BME280;45115;52.002;4.686;2023-04-07T04:16:59;101669.28;;;7.97;97.78
59337;BME280;45115;52.002;4.686;2023-04-07T04:19:35;101672.44;;;8.03;97.23
59337;BME280;45115;52.002;4.686;2023-04-07T04:22:10;101672.13;;;7.95;97.85
59337;BME280;45115;52.002;4.686;2023-04-07T04:24:46;101680.53;;;7.92;97.68
59337;BME280;45115;52.002;4.686;2023-04-07T04:27:14;101681.38;;;7.92;97.32
59337;BME280;45115;52.002;4.686;2023-04-07T04:29:44;101679.22;;;7.98;96.79
59337;BME280;45115;52.002;4.686;2023-04-07T04:32:12;101682.50;;;8.03;95.66
59337;BME280;45115;52.002;4.686;2023-04-07T04:34:44;101670.91;;;7.86;96.24
59337;BME280;45115;52.002;4.686;2023-04-07T04:37:12;101680.97;;;7.99;95.67
59337;BME280;45115;52.002;4.686;2023-04-07T04:39:41;101681.31;;;7.94;96.00
59337;BME280;45115;52.002;4.686;2023-04-07T04:42:11;101682.16;;;7.94;95.19
59337;BME280;45115;52.002;4.686;2023-04-07T04:44:39;101682.63;;;8.01;94.93
59337;BME280;45115;52.002;4.686;2023-04-07T04:47:06;101671.25;;;7.94;95.03
59337;BME280;45115;52.002;4.686;2023-04-07T04:49:34;101681.72;;;8.01;94.73
59337;BME280;45115;52.002;4.686;2023-04-07T04:52:03;101685.88;;;7.93;95.08
59337;BME280;45115;52.002;4.686;2023-04-07T04:54:35;101691.88;;;7.99;94.91
59337;BME280;45115;52.002;4.686;2023-04-07T04:57:02;101692.00;;;7.97;94.85
59337;BME280;45115;52.002;4.686;2023-04-07T04:59:28;101691.44;;;7.92;94.79
59337;BME280;45115;52.002;4.686;2023-04-07T05:02:01;101688.06;;;8.01;94.44
59337;BME280;45115;52.002;4.686;2023-04-07T05:04:27;101696.91;;;7.92;94.95
59337;BME280;45115;52.002;4.686;2023-04-07T05:07:09;101700.28;;;7.96;94.83
59337;BME280;45115;52.002;4.686;2023-04-07T05:09:36;101694.94;;;7.94;94.87
59337;BME280;45115;52.002;4.686;2023-04-07T05:12:07;101709.13;;;7.99;94.76
59337;BME280;45115;52.002;4.686;2023-04-07T05:14:39;101704.22;;;8.04;94.19
59337;BME280;45115;52.002;4.686;2023-04-07T05:17:08;101706.72;;;8.07;94.67
59337;BME280;45115;52.002;4.686;2023-04-07T05:19:36;101703.09;;;8.07;94.41
59337;BME280;45115;52.002;4.686;2023-04-07T05:22:10;101706.72;;;8.07;94.61
59337;BME280;45115;52.002;4.686;2023-04-07T05:24:55;101713.59;;;8.13;94.77
59337;BME280;45115;52.002;4.686;2023-04-07T05:27:22;101713.19;;;8.19;94.28
59337;BME280;45115;52.002;4.686;2023-04-07T05:29:52;101707.50;;;8.22;94.57
59337;BME280;45115;52.002;4.686;2023-04-07T05:32:27;101713.00;;;8.34;93.69
59337;BME280;45115;52.002;4.686;2023-04-07T05:34:55;101714.97;;;8.32;93.94
59337;BME280;45115;52.002;4.686;2023-04-07T05:37:26;101718.53;;;8.33;93.30
59337;BME280;45115;52.002;4.686;2023-04-07T05:39:53;101722.25;;;8.32;93.21
59337;BME280;45115;52.002;4.686;2023-04-07T05:42:20;101717.75;;;8.18;93.50
59337;BME280;45115;52.002;4.686;2023-04-07T05:44:50;101727.78;;;8.18;93.51
59337;BME280;45115;52.002;4.686;2023-04-07T05:47:20;101723.44;;;8.15;93.27
59337;BME280;45115;52.002;4.686;2023-04-07T05:49:50;101712.84;;;8.11;92.60
59337;BME280;45115;52.002;4.686;2023-04-07T05:52:17;101729.63;;;8.17;93.04
59337;BME280;45115;52.002;4.686;2023-04-07T05:54:50;101716.16;;;8.28;91.11
59337;BME280;45115;52.002;4.686;2023-04-07T05:57:17;101719.97;;;8.26;91.80
59337;BME280;45115;52.002;4.686;2023-04-07T05:59:46;101735.25;;;8.28;91.68
59337;BME280;45115;52.002;4.686;2023-04-07T06:02:13;101726.50;;;8.23;92.35
59337;BME280;45115;52.002;4.686;2023-04-07T06:04:39;101734.06;;;8.32;91.06
59337;BME280;45115;52.002;4.686;2023-04-07T06:07:10;101750.34;;;8.34;90.54
59337;BME280;45115;52.002;4.686;2023-04-07T06:09:39;101738.66;;;8.32;90.32
59337;BME280;45115;52.002;4.686;2023-04-07T06:12:07;101741.81;;;8.38;89.56
59337;BME280;45115;52.002;4.686;2023-04-07T06:14:36;101745.31;;;8.40;89.70
59337;BME280;45115;52.002;4.686;2023-04-07T06:17:03;101748.56;;;8.45;89.41
59337;BME280;45115;52.002;4.686;2023-04-07T06:19:31;101747.16;;;8.52;89.96
59337;BME280;45115;52.002;4.686;2023-04-07T06:21:59;101751.53;;;8.67;90.07
59337;BME280;45115;52.002;4.686;2023-04-07T06:24:27;101747.38;;;8.74;89.10
59337;BME280;45115;52.002;4.686;2023-04-07T06:26:55;101731.81;;;8.87;89.34
59337;BME280;45115;52.002;4.686;2023-04-07T06:29:22;101742.03;;;9.09;88.02
59337;BME280;45115;52.002;4.686;2023-04-07T06:31:49;101750.38;;;9.31;87.09
59337;BME280;45115;52.002;4.686;2023-04-07T06:34:17;101749.41;;;9.32;86.53
59337;BME280;45115;52.002;4.686;2023-04-07T06:36:44;101745.22;;;9.39;85.08
59337;BME280;45115;52.002;4.686;2023-04-07T06:39:11;101746.50;;;9.46;86.61
59337;BME280;45115;52.002;4.686;2023-04-07T06:41:39;101737.31;;;9.24;86.28
59337;BME280;45115;52.002;4.686;2023-04-07T06:44:08;101755.44;;;9.25;85.76
59337;BME280;45115;52.002;4.686;2023-04-07T06:46:35;101754.44;;;9.26;86.21
59337;BME280;45115;52.002;4.686;2023-04-07T06:49:05;101756.66;;;9.21;85.72
59337;BME280;45115;52.002;4.686;2023-04-07T06:51:31;101755.44;;;9.25;86.68
59337;BME280;45115;52.002;4.686;2023-04-07T06:53:58;101762.88;;;9.23;87.79
59337;BME280;45115;52.002;4.686;2023-04-07T06:56:27;101772.13;;;9.33;86.31
59337;BME280;45115;52.002;4.686;2023-04-07T06:58:56;101767.16;;;9.14;87.75
59337;BME280;45115;52.002;4.686;2023-04-07T07:01:22;101775.00;;;9.19;87.92
59337;BME280;45115;52.002;4.686;2023-04-07T07:03:58;101773.28;;;9.18;88.14
59337;BME280;45115;52.002;4.686;2023-04-07T07:06:29;101781.63;;;9.03;88.21
59337;BME280;45115;52.002;4.686;2023-04-07T07:08:59;101783.59;;;9.01;87.73
59337;BME280;45115;52.002;4.686;2023-04-07T07:11:27;101784.25;;;8.92;88.93
59337;BME280;45115;52.002;4.686;2023-04-07T07:13:55;101792.03;;;8.98;88.99
59337;BME280;45115;52.002;4.686;2023-04-07T07:16:22;101791.13;;;8.98;88.47
59337;BME280;45115;52.002;4.686;2023-04-07T07:18:49;101792.66;;;9.02;87.95
59337;BME280;45115;52.002;4.686;2023-04-07T07:21:17;101789.53;;;8.95;86.91
59337;BME280;45115;52.002;4.686;2023-04-07T07:23:43;101801.97;;;8.87;86.40
59337;BME280;45115;52.002;4.686;2023-04-07T07:26:10;101799.69;;;8.93;85.50
59337;BME280;45115;52.002;4.686;2023-04-07T07:28:37;101804.81;;;8.85;85.04
59337;BME280;45115;52.002;4.686;2023-04-07T07:31:09;101804.81;;;8.85;84.14
59337;BME280;45115;52.002;4.686;2023-04-07T07:33:38;101817.38;;;8.88;85.28
59337;BME280;45115;52.002;4.686;2023-04-07T07:36:05;101811.69;;;8.78;85.05
59337;BME280;45115;52.002;4.686;2023-04-07T07:38:32;101809.75;;;8.80;84.67
59337;BME280;45115;52.002;4.686;2023-04-07T07:40:59;101814.66;;;8.88;84.67
59337;BME280;45115;52.002;4.686;2023-04-07T07:43:26;101821.00;;;8.88;85.42
59337;BME280;45115;52.002;4.686;2023-04-07T07:45:53;101825.44;;;9.15;84.78
59337;BME280;45115;52.002;4.686;2023-04-07T07:48:23;101827.69;;;9.33;84.25
59337;BME280;45115;52.002;4.686;2023-04-07T07:50:53;101833.84;;;9.24;84.58
59337;BME280;45115;52.002;4.686;2023-04-07T07:53:21;101824.28;;;9.42;83.84
59337;BME280;45115;52.002;4.686;2023-04-07T07:55:48;101828.38;;;9.24;83.34
59337;BME280;45115;52.002;4.686;2023-04-07T07:58:14;101829.78;;;9.30;84.97
59337;BME280;45115;52.002;4.686;2023-04-07T08:00:41;101824.56;;;9.27;84.50
59337;BME280;45115;52.002;4.686;2023-04-07T08:03:10;101832.78;;;9.14;85.75
59337;BME280;45115;52.002;4.686;2023-04-07T08:05:38;101833.19;;;9.08;85.72
59337;BME280;45115;52.002;4.686;2023-04-07T08:08:08;101831.47;;;9.07;85.13
59337;BME280;45115;52.002;4.686;2023-04-07T08:10:35;101838.09;;;9.28;85.15
59337;BME280;45115;52.002;4.686;2023-04-07T08:13:03;101844.88;;;9.35;83.36
59337;BME280;45115;52.002;4.686;2023-04-07T08:15:30;101844.41;;;9.41;83.96
59337;BME280;45115;52.002;4.686;2023-04-07T08:17:57;101836.25;;;9.29;83.36
59337;BME280;45115;52.002;4.686;2023-04-07T08:20:25;101845.50;;;9.51;83.20
59337;BME280;45115;52.002;4.686;2023-04-07T08:22:53;101847.78;;;9.45;81.92
59337;BME280;45115;52.002;4.686;2023-04-07T08:25:20;101857.50;;;9.49;83.33
59337;BME280;45115;52.002;4.686;2023-04-07T08:27:46;101860.72;;;9.43;81.68
59337;BME280;45115;52.002;4.686;2023-04-07T08:30:16;101854.38;;;9.42;81.47
59337;BME280;45115;52.002;4.686;2023-04-07T08:32:43;101858.94;;;9.42;83.29
59337;BME280;45115;52.002;4.686;2023-04-07T08:35:13;101864.00;;;9.48;83.17
59337;BME280;45115;52.002;4.686;2023-04-07T08:37:40;101864.41;;;9.54;81.73
59337;BME280;45115;52.002;4.686;2023-04-07T08:40:10;101868.03;;;9.78;82.19
59337;BME280;45115;52.002;4.686;2023-04-07T08:42:40;101870.75;;;9.55;80.67
59337;BME280;45115;52.002;4.686;2023-04-07T08:45:08;101867.66;;;9.59;79.91
59337;BME280;45115;52.002;4.686;2023-04-07T08:47:36;101873.66;;;9.64;80.67
59337;BME280;45115;52.002;4.686;2023-04-07T08:50:05;101878.44;;;9.73;80.73
59337;BME280;45115;52.002;4.686;2023-04-07T08:52:34;101870.72;;;9.91;80.78
59337;BME280;45115;52.002;4.686;2023-04-07T08:55:04;101871.81;;;9.88;80.66
59337;BME280;45115;52.002;4.686;2023-04-07T08:57:36;101868.63;;;9.71;80.27
59337;BME280;45115;52.002;4.686;2023-04-07T09:00:04;101882.00;;;9.63;80.91
59337;BME280;45115;52.002;4.686;2023-04-07T09:02:32;101882.66;;;9.54;81.41
59337;BME280;45115;52.002;4.686;2023-04-07T09:05:02;101881.81;;;9.53;81.28
59337;BME280;45115;52.002;4.686;2023-04-07T09:07:30;101885.50;;;9.52;81.71
59337;BME280;45115;52.002;4.686;2023-04-07T09:09:58;101880.94;;;9.53;81.05
59337;BME280;45115;52.002;4.686;2023-04-07T09:12:28;101892.81;;;9.64;82.02
59337;BME280;45115;52.002;4.686;2023-04-07T09:14:59;101892.25;;;9.72;81.18
59337;BME280;45115;52.002;4.686;2023-04-07T09:17:27;101888.47;;;9.49;80.71
59337;BME280;45115;52.002;4.686;2023-04-07T09:19:57;101884.31;;;9.56;81.64
59337;BME280;45115;52.002;4.686;2023-04-07T09:22:36;101884.81;;;9.74;80.92
59337;BME280;45115;52.002;4.686;2023-04-07T09:25:09;101887.78;;;9.71;81.38
59337;BME280;45115;52.002;4.686;2023-04-07T09:27:36;101892.50;;;9.69;81.23
59337;BME280;45115;52.002;4.686;2023-04-07T09:30:12;101895.00;;;9.59;82.11
59337;BME280;45115;52.002;4.686;2023-04-07T09:32:40;101892.94;;;9.63;81.63
59337;BME280;45115;52.002;4.686;2023-04-07T09:35:07;101889.16;;;9.76;80.50
59337;BME280;45115;52.002;4.686;2023-04-07T09:37:34;101895.56;;;10.00;80.36
59337;BME280;45115;52.002;4.686;2023-04-07T09:40:04;101885.69;;;10.10;78.91
59337;BME280;45115;52.002;4.686;2023-04-07T09:42:31;101896.13;;;9.93;81.04
59337;BME280;45115;52.002;4.686;2023-04-07T09:45:01;101898.09;;;9.91;81.07
59337;BME280;45115;52.002;4.686;2023-04-07T09:47:31;101902.31;;;10.07;79.96
59337;BME280;45115;52.002;4.686;2023-04-07T09:49:58;101909.06;;;10.38;79.71
59337;BME280;45115;52.002;4.686;2023-04-07T09:52:48;101899.97;;;10.38;78.88
59337;BME280;45115;52.002;4.686;2023-04-07T09:55:16;101898.38;;;10.35;79.00
59337;BME280;45115;52.002;4.686;2023-04-07T09:57:45;101898.31;;;10.24;79.49
59337;BME280;45115;52.002;4.686;2023-04-07T10:00:13;101897.84;;;10.30;78.54
59337;BME280;45115;52.002;4.686;2023-04-07T10:02:44;101904.41;;;10.51;77.33
59337;BME280;45115;52.002;4.686;2023-04-07T10:05:11;101897.97;;;10.29;78.47
59337;BME280;45115;52.002;4.686;2023-04-07T10:07:39;101902.31;;;10.07;78.92
59337;BME280;45115;52.002;4.686;2023-04-07T10:10:07;101898.28;;;10.00;79.18
59337;BME280;45115;52.002;4.686;2023-04-07T10:12:34;101902.31;;;10.07;80.32
59337;BME280;45115;52.002;4.686;2023-04-07T10:15:03;101904.19;;;10.31;78.91
59337;BME280;45115;52.002;4.686;2023-04-07T10:17:33;101900.13;;;10.13;78.78
59337;BME280;45115;52.002;4.686;2023-04-07T10:20:03;101909.63;;;10.20;78.44
59337;BME280;45115;52.002;4.686;2023-04-07T10:22:32;101914.94;;;10.34;78.76
59337;BME280;45115;52.002;4.686;2023-04-07T10:25:04;101907.69;;;10.67;78.20
59337;BME280;45115;52.002;4.686;2023-04-07T10:27:35;101906.97;;;10.76;77.98
59337;BME280;45115;52.002;4.686;2023-04-07T10:30:07;101908.66;;;10.55;77.42
59337;BME280;45115;52.002;4.686;2023-04-07T10:32:45;101920.22;;;10.48;77.04
59337;BME280;45115;52.002;4.686;2023-04-07T10:35:20;101910.06;;;10.13;78.55
59337;BME280;45115;52.002;4.686;2023-04-07T10:38:09;101923.22;;;10.32;78.38
59337;BME280;45115;52.002;4.686;2023-04-07T10:40:41;101925.25;;;10.30;77.64
59337;BME280;45115;52.002;4.686;2023-04-07T10:43:08;101922.38;;;10.32;79.20
59337;BME280;45115;52.002;4.686;2023-04-07T10:45:55;101924.16;;;10.44;79.70
59337;BME280;45115;52.002;4.686;2023-04-07T10:48:24;101925.44;;;10.51;78.07
59337;BME280;45115;52.002;4.686;2023-04-07T10:51:14;101926.22;;;10.64;77.60
59337;BME280;45115;52.002;4.686;2023-04-07T10:57:07;101934.75;;;10.83;76.69
59337;BME280;45115;52.002;4.686;2023-04-07T10:59:37;101936.91;;;10.79;76.62
59337;BME280;45115;52.002;4.686;2023-04-07T11:02:29;101931.31;;;10.92;76.79
59337;BME280;45115;52.002;4.686;2023-04-07T11:04:56;101931.41;;;10.79;76.59
59337;BME280;45115;52.002;4.686;2023-04-07T11:07:47;101931.13;;;10.71;78.42
59337;BME280;45115;52.002;4.686;2023-04-07T11:10:14;101940.31;;;11.05;77.49
59337;BME280;45115;52.002;4.686;2023-04-07T11:12:43;101935.22;;;11.11;75.02
59337;BME280;45115;52.002;4.686;2023-04-07T11:15:18;101945.63;;;11.30;76.74
59337;BME280;45115;52.002;4.686;2023-04-07T11:17:45;101951.94;;;11.31;75.80
59337;BME280;45115;52.002;4.686;2023-04-07T11:20:11;101948.25;;;10.86;77.27
59337;BME280;45115;52.002;4.686;2023-04-07T11:22:38;101951.97;;;10.50;79.60
59337;BME280;45115;52.002;4.686;2023-04-07T11:25:21;101947.81;;;10.45;79.16
59337;BME280;45115;52.002;4.686;2023-04-07T11:27:52;101956.03;;;10.45;78.48
59337;BME280;45115;52.002;4.686;2023-04-07T11:30:19;101955.47;;;10.29;79.80
59337;BME280;45115;52.002;4.686;2023-04-07T11:32:47;101961.41;;;10.46;79.11
59337;BME280;45115;52.002;4.686;2023-04-07T11:35:18;101947.53;;;10.37;79.72
59337;BME280;45115;52.002;4.686;2023-04-07T11:37:45;101959.09;;;10.64;79.01
59337;BME280;45115;52.002;4.686;2023-04-07T11:40:11;101963.88;;;10.62;78.89
59337;BME280;45115;52.002;4.686;2023-04-07T11:42:42;101963.16;;;10.47;79.75
59337;BME280;45115;52.002;4.686;2023-04-07T11:45:16;101956.69;;;10.25;79.25
59337;BME280;45115;52.002;4.686;2023-04-07T11:47:44;101966.81;;;10.11;80.22
59337;BME280;45115;52.002;4.686;2023-04-07T11:50:11;101971.25;;;9.76;82.49
59337;BME280;45115;52.002;4.686;2023-04-07T11:52:42;101968.81;;;9.97;82.49
59337;BME280;45115;52.002;4.686;2023-04-07T11:55:18;101974.69;;;10.03;81.89
59337;BME280;45115;52.002;4.686;2023-04-07T11:57:47;101978.00;;;9.96;81.11
59337;BME280;45115;52.002;4.686;2023-04-07T12:00:15;101971.84;;;10.05;80.43
59337;BME280;45115;52.002;4.686;2023-04-07T12:02:43;101980.41;;;10.00;82.17
59337;BME280;45115;52.002;4.686;2023-04-07T12:05:12;101997.16;;;9.96;81.79
59337;BME280;45115;52.002;4.686;2023-04-07T12:07:39;101992.31;;;10.12;80.66
59337;BME280;45115;52.002;4.686;2023-04-07T12:10:19;101992.97;;;10.03;80.01
59337;BME280;45115;52.002;4.686;2023-04-07T12:12:48;101987.63;;;10.14;79.36
59337;BME280;45115;52.002;4.686;2023-04-07T12:15:16;101987.56;;;10.50;77.40
59337;BME280;45115;52.002;4.686;2023-04-07T12:17:44;101991.41;;;10.71;77.23
59337;BME280;45115;52.002;4.686;2023-04-07T12:20:12;101990.00;;;10.89;76.40
59337;BME280;45115;52.002;4.686;2023-04-07T12:22:39;101991.69;;;11.25;76.84
59337;BME280;45115;52.002;4.686;2023-04-07T12:25:07;101987.28;;;11.00;74.86
59337;BME280;45115;52.002;4.686;2023-04-07T12:27:34;101989.31;;;10.75;76.52
59337;BME280;45115;52.002;4.686;2023-04-07T12:30:02;101999.16;;;10.54;77.93
59337;BME280;45115;52.002;4.686;2023-04-07T12:32:29;101990.56;;;10.47;76.16
59337;BME280;45115;52.002;4.686;2023-04-07T12:34:57;101996.63;;;10.63;76.58
59337;BME280;45115;52.002;4.686;2023-04-07T12:37:24;101991.06;;;10.76;76.20
59337;BME280;45115;52.002;4.686;2023-04-07T12:39:51;101994.72;;;10.87;75.31
59337;BME280;45115;52.002;4.686;2023-04-07T12:42:18;101997.59;;;11.32;74.87
59337;BME280;45115;52.002;4.686;2023-04-07T12:44:45;102001.34;;;11.42;73.26
59337;BME280;45115;52.002;4.686;2023-04-07T12:47:13;102006.91;;;11.18;73.30
59337;BME280;45115;52.002;4.686;2023-04-07T12:49:40;102005.81;;;10.86;74.03
59337;BME280;45115;52.002;4.686;2023-04-07T12:52:06;101994.22;;;10.59;75.76
59337;BME280;45115;52.002;4.686;2023-04-07T12:54:33;102013.34;;;10.48;76.77
59337;BME280;45115;52.002;4.686;2023-04-07T12:57:00;102010.19;;;10.65;75.51
59337;BME280;45115;52.002;4.686;2023-04-07T12:59:29;102016.13;;;10.59;76.04
59337;BME280;45115;52.002;4.686;2023-04-07T13:01:56;102015.69;;;10.65;75.85
59337;BME280;45115;52.002;4.686;2023-04-07T13:04:24;102012.38;;;10.83;76.64
59337;BME280;45115;52.002;4.686;2023-04-07T13:06:51;102024.34;;;11.17;75.15
59337;BME280;45115;52.002;4.686;2023-04-07T13:09:21;102024.09;;;11.20;75.21
59337;BME280;45115;52.002;4.686;2023-04-07T13:11:47;102017.53;;;10.88;75.16
59337;BME280;45115;52.002;4.686;2023-04-07T13:14:14;102021.16;;;10.65;76.91